Time;durP1;ratioP1;P1;durP2;ratioP2;P2;SDS_P1;SDS_P2;PMS_P1;PMS_P2;Temp;Humidity;BMP_temperature;BMP_pressure;BME280_temperature;BME280_humidity;BME280_pressure;Samples;Min_cycle;Max_cycle;Signal;HPM_P1;HPM_P2
2022/01/13 00:00:50;;;;;;;52.80;11.00;;;;;;;3.06;100.00;104142.03;5076252;28;20016;-74
2022/01/13 00:03:15;;;;;;;55.15;9.50;;;;;;;3.03;100.00;104140.19;5074437;28;20041;-74
2022/01/13 00:05:41;;;;;;;55.28;9.52;;;;;;;2.99;100.00;104143.47;5075184;28;20024;-69
2022/01/13 00:08:06;;;;;;;31.73;8.93;;;;;;;3.00;100.00;104150.50;5074949;28;20059;-72
2022/01/13 00:10:32;;;;;;;57.97;10.82;;;;;;;3.02;100.00;104153.19;5075075;28;20103;-75
2022/01/13 00:13:03;;;;;;;67.07;11.27;;;;;;;3.01;100.00;104148.81;5075265;28;20472;-74
2022/01/13 00:15:47;;;;;;;39.95;9.25;;;;;;;3.00;100.00;104147.88;5055055;28;20025;-75
2022/01/13 00:18:18;;;;;;;111.13;10.77;;;;;;;2.98;100.00;104156.50;5054889;28;20370;-70
2022/01/13 00:21:11;;;;;;;40.70;9.10;;;;;;;3.04;100.00;104139.31;5063365;28;20040;-74
2022/01/13 00:26:29;;;;;;;63.03;10.73;;;;;;;3.07;100.00;104136.84;4993438;28;20060;-78
2022/01/13 00:28:56;;;;;;;40.63;9.88;;;;;;;3.05;100.00;104138.50;4993326;28;20395;-75
2022/01/13 00:31:30;;;;;;;42.60;11.00;;;;;;;3.09;100.00;104142.13;4994357;28;20035;-76
2022/01/13 00:33:58;;;;;;;33.72;10.02;;;;;;;3.09;100.00;104143.00;4993216;28;20046;-72
2022/01/13 00:36:29;;;;;;;43.28;10.85;;;;;;;3.13;100.00;104146.66;4975528;28;20418;-74
2022/01/13 00:38:55;;;;;;;52.15;11.60;;;;;;;3.12;100.00;104139.66;4973592;28;20514;-78
2022/01/13 00:41:23;;;;;;;50.10;11.10;;;;;;;3.14;100.00;104139.72;4978758;28;20101;-78
2022/01/13 00:43:48;;;;;;;54.08;11.07;;;;;;;3.10;100.00;104139.56;4993064;28;20035;-75
2022/01/13 00:46:20;;;;;;;62.60;11.63;;;;;;;3.13;100.00;104127.44;4981446;28;20051;-77
2022/01/13 00:48:46;;;;;;;36.40;11.02;;;;;;;3.14;100.00;104132.72;4973442;28;20058;-78
2022/01/13 00:51:12;;;;;;;46.10;11.10;;;;;;;3.17;100.00;104138.09;4973532;28;20035;-70
2022/01/13 00:53:37;;;;;;;60.85;12.60;;;;;;;3.19;100.00;104153.88;4993274;28;20045;-79
2022/01/13 00:56:03;;;;;;;65.72;11.70;;;;;;;3.12;100.00;104142.28;4988005;28;20035;-76
2022/01/13 00:58:32;;;;;;;70.03;11.75;;;;;;;3.12;100.00;104150.13;4982513;28;20046;-76
2022/01/13 01:00:58;;;;;;;43.70;11.65;;;;;;;3.14;100.00;104145.81;4992865;28;20504;-79
2022/01/13 01:03:25;;;;;;;48.53;11.52;;;;;;;3.11;100.00;104143.09;5053248;28;20049;-76
2022/01/13 01:05:50;;;;;;;66.45;11.95;;;;;;;3.15;100.00;104151.97;5074006;28;20055;-78
2022/01/13 01:08:15;;;;;;;81.90;13.60;;;;;;;3.13;100.00;104167.59;5073417;28;20032;-78
2022/01/13 01:10:42;;;;;;;37.35;11.13;;;;;;;3.16;100.00;104156.34;5073625;28;20032;-75
2022/01/13 01:13:12;;;;;;;58.28;11.73;;;;;;;3.13;100.00;104164.09;5074981;28;20020;-75
2022/01/13 01:15:42;;;;;;;42.45;11.07;;;;;;;3.15;100.00;104165.06;5073685;28;20361;-79
2022/01/13 01:18:26;;;;;;;52.47;11.50;;;;;;;3.17;100.00;104155.53;5073425;28;20123;-74
2022/01/13 01:22:04;;;;;;;48.95;10.57;;;;;;;3.17;100.00;104153.81;5073696;28;20064;-74
2022/01/13 01:26:36;;;;;;;64.65;11.48;;;;;;;3.11;100.00;104161.44;5072632;28;20068;-71
2022/01/13 01:29:21;;;;;;;60.55;10.88;;;;;;;3.17;100.00;104158.16;5073272;28;20035;-80
2022/01/13 01:31:51;;;;;;;87.25;13.57;;;;;;;3.15;100.00;104160.72;5073464;28;20029;-78
2022/01/13 01:36:44;;;;;;;72.45;13.25;;;;;;;3.15;100.00;104162.44;5074617;28;20038;-69
2022/01/13 01:39:10;;;;;;;55.78;12.35;;;;;;;3.19;100.00;104166.97;5072894;28;20032;-75
2022/01/13 01:41:38;;;;;;;90.93;14.60;;;;;;;3.18;100.00;104165.19;5073053;28;20039;-78
2022/01/13 01:44:07;;;;;;;97.90;14.00;;;;;;;3.17;100.00;104159.06;5074105;28;20465;-73
2022/01/13 01:46:38;;;;;;;60.65;12.43;;;;;;;3.20;100.00;104163.53;5073044;28;20126;-77
2022/01/13 01:49:14;;;;;;;96.47;15.35;;;;;;;3.17;100.00;104159.06;5072936;28;20035;-78
2022/01/13 01:51:40;;;;;;;134.00;14.88;;;;;;;3.19;100.00;104159.13;5073099;28;20396;-79
2022/01/13 01:54:05;;;;;;;97.78;13.85;;;;;;;3.23;100.00;104155.78;5072862;28;20036;-78
2022/01/13 01:56:30;;;;;;;80.55;13.00;;;;;;;3.28;100.00;104159.47;5073774;28;20032;-69
2022/01/13 01:59:00;;;;;;;76.53;13.52;;;;;;;3.24;100.00;104162.81;5072866;28;20052;-74
2022/01/13 02:01:27;;;;;;;83.82;12.93;;;;;;;3.26;100.00;104156.78;5072753;28;20060;-73
2022/01/13 02:03:53;;;;;;;85.45;14.85;;;;;;;3.25;100.00;104157.63;5072967;28;20036;-76
2022/01/13 02:06:19;;;;;;;63.10;13.30;;;;;;;3.25;100.00;104161.97;5083025;28;20490;-78
2022/01/13 02:08:45;;;;;;;72.65;13.73;;;;;;;3.28;100.00;104154.22;5093153;28;20081;-71
2022/01/13 02:11:10;;;;;;;76.57;12.23;;;;;;;3.29;100.00;104153.41;5081223;28;20020;-75
2022/01/13 02:13:36;;;;;;;64.50;11.95;;;;;;;3.27;100.00;104157.69;5072955;28;20028;-74
2022/01/13 02:16:05;;;;;;;79.38;13.05;;;;;;;3.28;100.00;104151.59;5073984;28;20044;-70
2022/01/13 02:18:33;;;;;;;73.20;13.63;;;;;;;3.29;100.00;104150.78;5072675;28;20043;-79
2022/01/13 02:21:00;;;;;;;60.50;12.43;;;;;;;3.26;100.00;104146.31;5072412;28;20025;-78
2022/01/13 02:23:36;;;;;;;104.97;13.60;;;;;;;3.25;100.00;104149.75;5069484;28;20025;-79
2022/01/13 02:26:04;;;;;;;82.30;12.43;;;;;;;3.29;100.00;104142.94;5073451;28;20074;-80
2022/01/13 02:28:30;;;;;;;84.15;13.82;;;;;;;3.29;100.00;104142.94;5072506;28;20031;-79
2022/01/13 02:30:55;;;;;;;64.75;13.02;;;;;;;3.31;100.00;104132.50;5072701;28;20060;-79
2022/01/13 02:33:21;;;;;;;119.65;13.70;;;;;;;3.30;100.00;104125.47;5072224;28;20115;-74
2022/01/13 02:35:46;;;;;;;78.30;12.55;;;;;;;3.30;100.00;104117.63;5072213;28;20464;-70
2022/01/13 02:38:12;;;;;;;63.28;11.25;;;;;;;3.30;100.00;104109.75;5073398;28;20058;-79
2022/01/13 02:40:38;;;;;;;63.97;11.02;;;;;;;3.28;100.00;104112.31;5072108;28;20024;-79
2022/01/13 02:43:05;;;;;;;84.68;12.27;;;;;;;3.27;100.00;104111.44;5071748;28;20039;-78
2022/01/13 02:45:37;;;;;;;68.07;12.02;;;;;;;3.29;100.00;104108.88;5072315;28;20472;-79
2022/01/13 02:50:27;;;;;;;68.90;11.35;;;;;;;3.31;100.00;104111.53;5072534;28;20373;-73
2022/01/13 02:52:53;;;;;;;106.80;12.43;;;;;;;3.26;100.00;104109.66;5071935;28;20371;-77
2022/01/13 02:55:18;;;;;;;81.60;12.32;;;;;;;3.24;100.00;104110.41;5071845;28;20025;-72
2022/01/13 02:57:44;;;;;;;72.38;11.48;;;;;;;3.28;100.00;104109.69;5073122;28;20029;-75
2022/01/13 03:00:09;;;;;;;82.00;12.90;;;;;;;3.25;100.00;104109.59;5072084;28;20446;-74
2022/01/13 03:02:35;;;;;;;82.68;12.98;;;;;;;3.28;100.00;104122.78;5071964;28;20017;-79
2022/01/13 03:05:00;;;;;;;61.17;12.27;;;;;;;3.32;100.00;104108.09;5072100;28;20561;-79
2022/01/13 03:07:30;;;;;;;63.10;12.15;;;;;;;3.29;100.00;104111.50;5072987;28;20139;-75
2022/01/13 03:09:55;;;;;;;59.20;12.18;;;;;;;3.26;100.00;104116.59;5069607;28;20032;-69
2022/01/13 03:12:20;;;;;;;115.68;14.80;;;;;;;3.26;100.00;104100.88;5071514;28;20021;-79
2022/01/13 03:14:46;;;;;;;117.10;13.80;;;;;;;3.26;100.00;104106.13;5071736;28;20031;-74
2022/01/13 03:17:11;;;;;;;67.75;11.88;;;;;;;3.31;100.00;104093.22;5072018;28;20025;-73
2022/01/13 03:19:36;;;;;;;53.00;10.80;;;;;;;3.32;100.00;104101.13;5073104;28;20033;-78
2022/01/13 03:22:02;;;;;;;57.92;11.25;;;;;;;3.32;100.00;104093.25;5071958;28;20021;-78
2022/01/13 03:24:30;;;;;;;56.65;11.65;;;;;;;3.34;100.00;104103.78;5071666;28;20379;-76
2022/01/13 03:26:55;;;;;;;84.15;12.35;;;;;;;3.35;100.00;104098.63;5072118;28;20032;-77
2022/01/13 03:29:22;;;;;;;90.30;14.48;;;;;;;3.34;100.00;104101.16;5072712;28;20465;-76
2022/01/13 03:31:48;;;;;;;60.17;11.25;;;;;;;3.37;100.00;104101.31;5071919;28;20074;-76
2022/01/13 03:34:14;;;;;;;78.47;12.00;;;;;;;3.34;100.00;104102.09;5071665;28;20032;-78
2022/01/13 03:36:44;;;;;;;111.40;14.23;;;;;;;3.34;100.00;104109.03;5070353;28;20052;-77
2022/01/13 03:39:10;;;;;;;81.20;12.25;;;;;;;3.39;100.00;104092.66;5072739;28;20073;-77
2022/01/13 03:41:38;;;;;;;76.38;13.57;;;;;;;3.38;100.00;104093.50;5071862;28;20035;-78
2022/01/13 03:44:06;;;;;;;74.30;13.68;;;;;;;3.39;100.00;104095.28;5071592;28;20111;-78
2022/01/13 03:46:34;;;;;;;78.57;12.68;;;;;;;3.42;100.00;104084.03;5071210;28;20060;-69
2022/01/13 03:49:00;;;;;;;78.25;13.68;;;;;;;3.42;100.00;104086.66;5073420;28;20029;-78
2022/01/13 03:51:46;;;;;;;78.75;12.15;;;;;;;3.42;100.00;104086.66;5076290;28;20025;-78
2022/01/13 03:54:34;;;;;;;87.03;13.50;;;;;;;3.39;100.00;104082.19;5075066;28;20033;-70
2022/01/13 03:57:36;;;;;;;73.15;13.55;;;;;;;3.41;100.00;104083.13;5075175;28;20032;-78
2022/01/13 04:00:23;;;;;;;88.57;14.07;;;;;;;3.40;100.00;104080.44;5076144;28;20024;-79
2022/01/13 04:02:48;;;;;;;89.05;14.63;;;;;;;3.44;100.00;104085.88;5075293;28;20104;-76
2022/01/13 04:05:13;;;;;;;99.72;13.20;;;;;;;3.44;100.00;104091.13;5075113;28;20104;-79
2022/01/13 04:07:39;;;;;;;95.82;14.18;;;;;;;3.44;100.00;104090.22;5074858;28;20032;-72
2022/01/13 04:10:29;;;;;;;109.72;14.73;;;;;;;3.38;100.00;104088.25;5075482;28;20067;-77
2022/01/13 04:12:55;;;;;;;78.78;15.18;;;;;;;3.40;100.00;104091.84;5054803;28;20481;-69
2022/01/13 04:15:24;;;;;;;65.60;14.50;;;;;;;3.46;100.00;104098.16;5054818;28;20021;-72
2022/01/13 04:17:49;;;;;;;79.30;15.32;;;;;;;3.46;100.00;104087.66;5063463;28;20016;-78
2022/01/13 04:20:14;;;;;;;66.63;13.82;;;;;;;3.44;100.00;104092.84;5074824;28;20036;-79
2022/01/13 04:22:40;;;;;;;80.13;15.43;;;;;;;3.47;100.00;104092.97;5075897;28;20033;-79
2022/01/13 04:25:06;;;;;;;74.70;14.65;;;;;;;3.46;100.00;104083.31;5074866;28;20037;-79
2022/01/13 04:27:37;;;;;;;67.45;14.65;;;;;;;3.47;100.00;104082.47;5074706;28;20070;-75
2022/01/13 04:32:42;;;;;;;114.85;16.65;;;;;;;3.46;100.00;104075.44;5075685;28;20039;-78
2022/01/13 04:35:08;;;;;;;66.78;14.68;;;;;;;3.48;100.00;104084.25;5074707;28;20020;-76
2022/01/13 04:37:33;;;;;;;73.05;15.05;;;;;;;3.51;100.00;104083.47;5074500;28;20029;-77
2022/01/13 04:39:58;;;;;;;73.90;15.25;;;;;;;3.53;100.00;104093.19;5073911;28;20123;-75
2022/01/13 04:42:26;;;;;;;100.40;15.55;;;;;;;3.54;100.00;104091.44;5075310;28;20028;-77
2022/01/13 04:44:51;;;;;;;80.03;15.98;;;;;;;3.51;100.00;104081.75;5074422;28;20048;-79
2022/01/13 04:47:17;;;;;;;88.35;16.83;;;;;;;3.51;100.00;104089.59;5073826;28;20021;-77
2022/01/13 04:49:42;;;;;;;94.53;16.23;;;;;;;3.52;100.00;104080.03;5073925;28;20376;-78
2022/01/13 04:52:07;;;;;;;92.70;17.35;;;;;;;3.48;100.00;104071.16;5075326;28;20028;-69
2022/01/13 04:54:33;;;;;;;74.40;16.35;;;;;;;3.53;100.00;104071.31;5074285;28;20025;-70
2022/01/13 04:59:29;;;;;;;90.93;15.80;;;;;;;3.53;100.00;104081.78;5074018;28;20577;-73
2022/01/13 05:01:54;;;;;;;158.05;20.17;;;;;;;3.51;100.00;104078.25;5073551;28;20119;-78
2022/01/13 05:04:21;;;;;;;75.78;16.80;;;;;;;3.51;100.00;104091.34;5074913;28;20424;-78
2022/01/13 05:06:46;;;;;;;78.35;16.88;;;;;;;3.56;100.00;104085.44;5074039;28;20035;-78
2022/01/13 05:09:11;;;;;;;90.05;17.52;;;;;;;3.55;100.00;104088.00;5073923;28;20025;-79
2022/01/13 05:11:37;;;;;;;112.03;19.45;;;;;;;3.54;100.00;104079.25;5073429;28;20123;-76
2022/01/13 05:14:02;;;;;;;76.25;17.23;;;;;;;3.59;100.00;104097.75;5075075;28;20431;-69
2022/01/13 05:16:35;;;;;;;78.90;17.23;;;;;;;3.59;100.00;104087.25;5073581;28;20391;-75
2022/01/13 05:24:14;;;;;;;69.75;15.98;;;;;;;3.65;100.00;104081.38;5074957;28;20438;-75
2022/01/13 05:26:40;;;;;;;111.18;18.60;;;;;;;3.61;100.00;104096.09;5073481;28;20024;-76
2022/01/13 05:29:06;;;;;;;89.22;17.80;;;;;;;3.63;100.00;104083.91;5073371;28;20028;-79
2022/01/13 05:31:31;;;;;;;87.00;17.30;;;;;;;3.64;100.00;104090.94;5073199;28;20476;-78
2022/01/13 05:33:56;;;;;;;85.95;17.75;;;;;;;3.66;100.00;104091.00;5057027;28;20148;-75
2022/01/13 05:36:22;;;;;;;75.00;18.92;;;;;;;3.72;100.00;104089.50;5073411;28;20353;-79
2022/01/13 05:38:48;;;;;;;99.97;19.15;;;;;;;3.71;100.00;104089.44;5073279;28;20027;-78
2022/01/13 05:41:13;;;;;;;103.10;21.02;;;;;;;3.71;100.00;104087.72;5073209;28;20017;-72
2022/01/13 05:43:39;;;;;;;96.97;21.75;;;;;;;3.72;100.00;104081.66;5072632;28;20516;-78
2022/01/13 05:46:05;;;;;;;105.72;21.30;;;;;;;3.76;100.00;104080.03;5074079;28;20501;-78
2022/01/13 05:48:31;;;;;;;120.15;23.67;;;;;;;3.73;100.00;104079.91;5073020;28;20036;-78
2022/01/13 05:50:57;;;;;;;94.05;21.67;;;;;;;3.77;100.00;104080.09;5073072;28;20039;-76
2022/01/13 05:53:23;;;;;;;145.50;23.85;;;;;;;3.70;100.00;104085.06;5072808;28;20468;-74
2022/01/13 05:55:48;;;;;;;95.47;21.77;;;;;;;3.75;100.00;104080.88;5073739;28;20028;-73
2022/01/13 05:58:13;;;;;;;101.93;22.35;;;;;;;3.77;100.00;104087.94;5072809;28;20034;-74
2022/01/13 06:00:39;;;;;;;100.53;21.38;;;;;;;3.81;100.00;104082.81;5072946;28;20028;-69
2022/01/13 06:03:04;;;;;;;108.40;21.23;;;;;;;3.82;100.00;104081.97;5072016;28;20442;-77
2022/01/13 06:05:31;;;;;;;105.38;23.00;;;;;;;3.82;100.00;104090.72;5068893;28;20036;-69
2022/01/13 06:07:56;;;;;;;94.75;21.83;;;;;;;3.84;100.00;104082.94;5052774;28;20036;-75
2022/01/13 06:10:22;;;;;;;90.00;19.67;;;;;;;3.85;100.00;104077.75;5053023;28;20415;-69
2022/01/13 06:12:49;;;;;;;113.53;22.00;;;;;;;3.88;100.00;104085.69;5060427;28;20541;-76
2022/01/13 06:15:18;;;;;;;107.65;20.98;;;;;;;3.90;100.00;104081.41;5072733;28;20033;-73
2022/01/13 06:17:44;;;;;;;84.78;19.70;;;;;;;3.91;100.00;104071.81;5073422;28;20024;-78
2022/01/13 06:20:11;;;;;;;95.45;18.42;;;;;;;3.92;100.00;104078.84;5072214;28;20145;-79
2022/01/13 06:22:39;;;;;;;88.95;21.27;;;;;;;3.91;100.00;104077.97;5072283;28;20110;-76
2022/01/13 06:25:05;;;;;;;113.00;23.75;;;;;;;3.91;100.00;104080.56;5052345;28;20362;-73
2022/01/13 06:27:31;;;;;;;101.15;19.33;;;;;;;3.91;100.00;104082.28;5070577;28;20137;-78
2022/01/13 06:29:57;;;;;;;95.13;19.35;;;;;;;3.93;100.00;104088.50;5065799;28;20476;-75
2022/01/13 06:32:22;;;;;;;93.32;19.35;;;;;;;3.94;100.00;104083.28;5052855;28;20113;-80
2022/01/13 06:34:49;;;;;;;95.32;19.52;;;;;;;3.96;100.00;104087.72;5052082;28;20074;-76
2022/01/13 06:37:15;;;;;;;111.57;18.52;;;;;;;3.98;100.00;104075.53;5065959;28;20028;-78
2022/01/13 06:39:41;;;;;;;83.43;18.38;;;;;;;3.95;100.00;104078.94;5087109;28;20043;-79
2022/01/13 06:42:07;;;;;;;89.80;18.58;;;;;;;3.98;100.00;104086.00;5072146;28;20033;-78
2022/01/13 06:44:32;;;;;;;112.75;20.70;;;;;;;3.98;100.00;104081.69;5072266;28;20396;-78
2022/01/13 06:46:58;;;;;;;103.40;18.83;;;;;;;4.02;100.00;104086.19;5072211;28;20028;-76
2022/01/13 06:49:23;;;;;;;96.72;19.08;;;;;;;3.98;100.00;104084.31;5090417;28;20484;-69
2022/01/13 06:51:48;;;;;;;100.55;20.30;;;;;;;3.94;100.00;104085.03;5092553;28;20133;-77
2022/01/13 06:54:14;;;;;;;154.57;21.33;;;;;;;3.92;100.00;104090.19;5092124;28;20039;-78
2022/01/13 06:56:39;;;;;;;97.10;20.33;;;;;;;3.96;100.00;104090.34;5092003;28;20028;-79
2022/01/13 06:59:10;;;;;;;96.85;20.02;;;;;;;3.96;100.00;104083.34;5077511;28;20024;-74
2022/01/13 07:01:36;;;;;;;114.43;21.77;;;;;;;3.98;100.00;104086.94;5072108;28;20028;-76
2022/01/13 07:04:02;;;;;;;88.75;18.65;;;;;;;3.97;100.00;104087.75;5072216;28;20023;-79
2022/01/13 07:06:27;;;;;;;117.28;20.27;;;;;;;4.03;100.00;104089.69;5071805;28;20376;-79
2022/01/13 07:08:52;;;;;;;119.95;20.85;;;;;;;4.05;100.00;104093.25;5072621;28;20473;-79
2022/01/13 07:11:18;;;;;;;107.80;19.58;;;;;;;4.06;100.00;104089.81;5071639;28;20020;-77
2022/01/13 07:13:43;;;;;;;98.47;20.58;;;;;;;4.06;100.00;104087.19;5071935;28;20117;-78
2022/01/13 07:16:08;;;;;;;104.10;19.70;;;;;;;4.09;100.00;104084.66;5071814;28;20363;-76
2022/01/13 07:18:39;;;;;;;89.50;18.27;;;;;;;4.08;100.00;104086.41;5072982;28;20471;-80
2022/01/13 07:21:09;;;;;;;111.60;20.55;;;;;;;4.05;100.00;104082.78;5067221;28;20036;-76
2022/01/13 07:23:35;;;;;;;116.18;20.42;;;;;;;4.04;100.00;104076.66;5061702;28;20029;-78
2022/01/13 07:26:02;;;;;;;121.53;22.77;;;;;;;4.03;100.00;104074.88;5056097;28;20109;-70
2022/01/13 07:28:29;;;;;;;103.97;20.70;;;;;;;4.06;100.00;104063.59;5057217;28;20041;-78
2022/01/13 07:30:55;;;;;;;110.60;21.13;;;;;;;4.08;100.00;104081.16;5066786;28;20029;-73
2022/01/13 07:33:20;;;;;;;101.90;19.73;;;;;;;4.10;100.00;104075.97;5075608;28;20050;-71
2022/01/13 07:35:45;;;;;;;104.78;20.02;;;;;;;4.08;100.00;104083.78;5062141;28;20174;-80
2022/01/13 07:38:11;;;;;;;101.60;21.15;;;;;;;4.08;100.00;104080.28;5066325;28;20052;-76
2022/01/13 07:40:36;;;;;;;106.55;21.70;;;;;;;4.06;100.00;104089.81;5069561;28;20037;-76
2022/01/13 07:43:02;;;;;;;99.40;20.20;;;;;;;4.08;100.00;104094.28;5075237;28;20071;-76
2022/01/13 07:45:27;;;;;;;109.30;21.20;;;;;;;4.07;100.00;104088.97;5075644;28;20518;-73
2022/01/13 07:47:53;;;;;;;97.53;19.42;;;;;;;4.07;100.00;104097.72;5075847;28;20021;-78
2022/01/13 07:50:18;;;;;;;99.10;19.60;;;;;;;4.11;100.00;104103.97;5076273;28;20036;-75
2022/01/13 07:52:43;;;;;;;111.68;19.60;;;;;;;4.08;100.00;104104.75;5071112;28;20032;-78
2022/01/13 07:55:10;;;;;;;87.38;18.60;;;;;;;4.12;100.00;104111.00;5072628;28;20021;-79
2022/01/13 07:57:36;;;;;;;96.97;18.92;;;;;;;4.16;100.00;104114.63;5074923;28;20037;-77
2022/01/13 08:00:04;;;;;;;79.60;18.23;;;;;;;4.16;100.00;104112.03;5073755;28;20483;-77
2022/01/13 08:02:29;;;;;;;103.57;19.50;;;;;;;4.17;100.00;104108.53;5084573;28;20420;-78
2022/01/13 08:04:54;;;;;;;110.18;21.02;;;;;;;4.18;100.00;104112.94;5074827;28;20468;-80
2022/01/13 08:07:20;;;;;;;102.35;20.13;;;;;;;4.22;100.00;104107.88;5073770;28;20107;-81
2022/01/13 08:09:45;;;;;;;87.95;18.00;;;;;;;4.25;100.00;104113.22;5074169;28;20108;-81
2022/01/13 08:12:10;;;;;;;91.75;18.65;;;;;;;4.28;100.00;104107.16;5070441;28;20112;-81
2022/01/13 08:14:36;;;;;;;131.57;19.40;;;;;;;4.24;100.00;104115.78;5074837;28;20041;-78
2022/01/13 08:17:03;;;;;;;94.43;18.02;;;;;;;4.28;100.00;104107.16;5074623;28;20021;-82
2022/01/13 08:19:46;;;;;;;93.40;19.08;;;;;;;4.30;100.00;104110.75;5063388;28;20033;-76
2022/01/13 08:22:16;;;;;;;94.75;18.52;;;;;;;4.34;100.00;104115.25;5065725;28;20124;-79
2022/01/13 08:24:42;;;;;;;98.38;19.00;;;;;;;4.33;100.00;104110.84;5074830;28;20032;-76
2022/01/13 08:27:08;;;;;;;116.40;20.40;;;;;;;4.32;100.00;104113.41;5074406;28;20035;-78
2022/01/13 08:29:33;;;;;;;83.28;17.33;;;;;;;4.32;100.00;104108.19;5075777;28;20027;-79
2022/01/13 08:31:59;;;;;;;86.68;17.50;;;;;;;4.35;100.00;104113.50;5058837;28;20354;-80
2022/01/13 08:34:24;;;;;;;94.28;18.27;;;;;;;4.38;100.00;104119.75;5061795;28;20017;-81
2022/01/13 08:36:49;;;;;;;84.28;16.38;;;;;;;4.37;100.00;104115.38;5074709;28;20028;-78
2022/01/13 08:39:15;;;;;;;76.18;17.30;;;;;;;4.32;100.00;104122.16;5074410;28;20115;-80
2022/01/13 08:41:41;;;;;;;97.35;17.00;;;;;;;4.37;100.00;104123.25;5074501;28;20024;-74
2022/01/13 08:44:06;;;;;;;90.07;16.40;;;;;;;4.40;100.00;104117.22;5073803;28;20592;-73
2022/01/13 08:46:32;;;;;;;74.13;16.85;;;;;;;4.41;100.00;104114.63;5074122;28;20081;-79
2022/01/13 08:48:57;;;;;;;73.75;15.05;;;;;;;4.41;100.00;104121.59;5074275;28;20037;-77
2022/01/13 08:51:22;;;;;;;69.55;16.38;;;;;;;4.35;100.00;104114.41;5074709;28;20475;-78
2022/01/13 08:53:48;;;;;;;68.88;16.00;;;;;;;4.40;100.00;104122.47;5074194;28;20388;-76
2022/01/13 08:56:14;;;;;;;67.10;15.68;;;;;;;4.43;100.00;104119.94;5074330;28;20020;-78
2022/01/13 08:58:40;;;;;;;70.95;16.80;;;;;;;4.45;100.00;104119.97;5070097;28;20089;-79
2022/01/13 09:01:07;;;;;;;72.25;15.77;;;;;;;4.46;100.00;104127.00;5074188;28;20028;-78
2022/01/13 09:03:32;;;;;;;100.85;17.30;;;;;;;4.43;100.00;104123.44;5059643;28;20052;-79
2022/01/13 09:05:57;;;;;;;68.32;15.73;;;;;;;4.49;100.00;104129.72;5058268;28;20050;-79
2022/01/13 09:08:23;;;;;;;84.97;16.45;;;;;;;4.50;100.00;104132.44;5073872;28;20467;-79
2022/01/13 09:10:48;;;;;;;106.18;16.85;;;;;;;4.54;100.00;104130.78;5074048;28;20028;-77
2022/01/13 09:13:15;;;;;;;100.95;18.38;;;;;;;4.50;100.00;104126.25;5073671;28;20032;-79
2022/01/13 09:15:48;;;;;;;71.78;15.90;;;;;;;4.53;100.00;104132.53;5073861;28;20032;-79
2022/01/13 09:18:17;;;;;;;73.13;17.45;;;;;;;4.58;100.00;104127.44;5073732;28;20418;-78
2022/01/13 09:20:44;;;;;;;76.32;16.95;;;;;;;4.59;100.00;104130.09;5073210;28;20307;-79
2022/01/13 09:23:10;;;;;;;73.22;18.83;;;;;;;4.66;100.00;104136.44;5073620;28;20032;-78
2022/01/13 09:25:36;;;;;;;74.82;15.35;;;;;;;4.64;100.00;104126.72;5073510;28;20024;-79
2022/01/13 09:28:05;;;;;;;69.55;18.15;;;;;;;4.66;100.00;104133.81;5072835;28;20024;-76
2022/01/13 09:30:30;;;;;;;90.32;17.73;;;;;;;4.68;100.00;104123.34;5071027;28;20028;-77
2022/01/13 09:32:56;;;;;;;86.80;16.70;;;;;;;4.73;100.00;104117.44;5073508;28;20372;-79
2022/01/13 09:35:21;;;;;;;89.97;15.98;;;;;;;4.73;100.00;104121.78;5067791;28;20461;-79
2022/01/13 09:37:47;;;;;;;87.85;16.73;;;;;;;4.70;100.00;104114.69;5071255;28;20040;-77
2022/01/13 09:40:15;;;;;;;81.95;15.57;;;;;;;4.68;100.00;104121.66;5073095;28;20133;-79
2022/01/13 09:42:42;;;;;;;70.25;15.18;;;;;;;4.72;100.00;104120.03;5069176;28;20028;-77
2022/01/13 09:45:09;;;;;;;68.47;15.30;;;;;;;4.74;100.00;104128.81;5052741;28;20124;-78
2022/01/13 09:47:37;;;;;;;67.32;16.17;;;;;;;4.78;100.00;104121.94;5053567;28;20535;-79
2022/01/13 09:50:08;;;;;;;78.45;16.85;;;;;;;4.77;100.00;104128.94;5068832;28;20035;-72
2022/01/13 09:52:33;;;;;;;70.00;16.87;;;;;;;4.82;100.00;104129.06;5072154;28;20034;-79
2022/01/13 09:54:58;;;;;;;77.25;15.55;;;;;;;4.84;100.00;104136.16;5072916;28;20275;-78
2022/01/13 09:57:24;;;;;;;80.05;17.05;;;;;;;4.81;100.00;104129.91;5072692;28;20020;-77
2022/01/13 09:59:49;;;;;;;79.78;17.33;;;;;;;4.85;100.00;104131.81;5072610;28;20029;-75
2022/01/13 10:02:14;;;;;;;69.03;16.38;;;;;;;4.87;100.00;104131.00;5072308;28;20107;-76
2022/01/13 10:04:48;;;;;;;79.32;17.65;;;;;;;4.84;100.00;104127.38;5073030;28;20039;-77
2022/01/13 10:07:28;;;;;;;75.45;17.25;;;;;;;4.88;100.00;104124.00;5073023;28;20021;-78
2022/01/13 10:09:55;;;;;;;65.13;16.75;;;;;;;4.87;100.00;104131.00;5072777;28;20017;-79
2022/01/13 10:12:28;;;;;;;82.40;17.50;;;;;;;4.96;100.00;104122.50;5071860;28;20396;-76
2022/01/13 10:17:48;;;;;;;71.82;16.88;;;;;;;5.13;100.00;104127.41;5072821;28;20040;-79
2022/01/13 10:20:15;;;;;;;70.97;17.53;;;;;;;5.10;100.00;104128.19;5065172;28;20083;-79
2022/01/13 10:22:41;;;;;;;70.18;18.98;;;;;;;5.13;100.00;104123.06;5067196;28;20056;-78
2022/01/13 10:25:08;;;;;;;70.50;19.15;;;;;;;5.17;100.00;104117.03;5065130;28;20052;-77
2022/01/13 10:27:36;;;;;;;68.15;19.15;;;;;;;5.25;100.00;104122.53;5070978;28;20016;-73
2022/01/13 10:30:07;;;;;;;67.43;18.25;;;;;;;5.28;100.00;104122.66;5067366;28;20025;-79
2022/01/13 10:32:40;;;;;;;64.78;18.25;;;;;;;5.30;100.00;104117.44;5067820;28;20460;-76
2022/01/13 10:35:12;;;;;;;68.25;18.63;;;;;;;5.28;100.00;104126.97;5067395;28;20032;-76
2022/01/13 10:37:40;;;;;;;70.78;18.85;;;;;;;5.38;100.00;104123.78;5067728;28;20107;-75
2022/01/13 10:40:09;;;;;;;61.95;18.92;;;;;;;5.37;100.00;104129.88;5072432;28;20213;-79
2022/01/13 10:45:31;;;;;;;69.22;18.05;;;;;;;5.41;100.00;104110.75;5071866;28;20052;-76
2022/01/13 10:47:58;;;;;;;68.38;19.33;;;;;;;5.45;100.00;104123.13;5063788;28;20071;-78
2022/01/13 10:50:35;;;;;;;59.80;18.60;;;;;;;5.48;100.00;104114.44;5059843;28;20111;-76
2022/01/13 10:53:05;;;;;;;63.30;19.23;;;;;;;5.45;100.00;104116.97;5072134;28;20028;-77
2022/01/13 10:55:34;;;;;;;63.53;19.48;;;;;;;5.53;100.00;104111.09;5063004;28;20029;-78
2022/01/13 10:57:59;;;;;;;69.35;19.42;;;;;;;5.56;100.00;104113.81;5072689;28;20024;-74
2022/01/13 11:00:28;;;;;;;64.13;18.60;;;;;;;5.63;100.00;104114.00;5072372;28;20039;-76
2022/01/13 11:03:15;;;;;;;68.38;19.30;;;;;;;5.68;100.00;104115.03;5076212;28;20098;-74
2022/01/13 11:05:46;;;;;;;54.30;17.42;;;;;;;5.69;100.00;104107.19;5077742;28;20032;-73
2022/01/13 11:08:20;;;;;;;61.20;19.67;;;;;;;5.69;100.00;104099.28;5076425;28;20391;-74
2022/01/13 11:10:51;;;;;;;62.90;18.55;;;;;;;5.63;100.00;104104.38;5065000;28;20700;-73
2022/01/13 11:13:21;;;;;;;54.10;18.40;;;;;;;5.67;100.00;104106.22;5075017;28;20041;-72
2022/01/13 11:15:52;;;;;;;60.67;18.83;;;;;;;5.72;100.00;104104.63;5069636;28;20072;-74
2022/01/13 11:18:20;;;;;;;73.57;20.65;;;;;;;5.74;100.00;104097.69;5075847;28;20043;-74
2022/01/13 11:20:46;;;;;;;57.40;18.75;;;;;;;5.82;100.00;104091.72;5075341;28;20033;-77
2022/01/13 11:23:12;;;;;;;65.88;19.58;;;;;;;5.81;100.00;104093.47;5075965;28;20035;-77
2022/01/13 11:25:37;;;;;;;64.13;19.60;;;;;;;5.81;100.00;104093.47;5073094;28;20037;-73
2022/01/13 11:28:07;;;;;;;59.58;20.25;;;;;;;5.85;100.00;104103.22;5070165;28;20376;-78
2022/01/13 11:30:32;;;;;;;76.05;20.83;;;;;;;5.94;100.00;104089.44;5073983;28;20028;-76
2022/01/13 11:32:58;;;;;;;63.63;19.75;;;;;;;5.98;100.00;104091.31;5076094;28;20078;-73
2022/01/13 11:35:29;;;;;;;60.90;19.88;;;;;;;6.01;100.00;104094.06;5075179;28;20040;-76